createdAt,value
2023-01-22T00:01:42.704Z,79.86
2023-01-22T00:04:12.417Z,79.91
2023-01-22T00:06:40.747Z,79.99
2023-01-22T00:09:09.575Z,80.20
2023-01-22T00:11:38.349Z,80.23
2023-01-22T00:14:07.357Z,79.86
2023-01-22T00:16:36.420Z,79.72
2023-01-22T00:19:06.700Z,80.02
2023-01-22T00:21:35.716Z,80.21
2023-01-22T00:24:04.619Z,79.65
2023-01-22T00:26:33.406Z,79.81
2023-01-22T00:29:02.067Z,79.97
2023-01-22T00:31:30.880Z,79.69
2023-01-22T00:33:59.682Z,80.06
2023-01-22T00:36:30.066Z,80.26
2023-01-22T00:38:59.064Z,79.92
2023-01-22T00:41:27.812Z,80.30
2023-01-22T00:43:56.661Z,79.90
2023-01-22T00:46:26.520Z,80.44
2023-01-22T00:48:55.366Z,80.44
2023-01-22T00:51:24.546Z,80.28
2023-01-22T00:53:55.088Z,80.47
2023-01-22T00:56:24.871Z,80.58
2023-01-22T00:58:53.664Z,80.59
2023-01-22T01:01:22.541Z,80.97
2023-01-22T01:03:51.288Z,80.28
2023-01-22T01:06:22.619Z,80.37
2023-01-22T01:08:51.650Z,80.73
2023-01-22T01:11:24.110Z,80.88
2023-01-22T01:13:53.880Z,80.52
2023-01-22T01:16:25.000Z,80.42
2023-01-22T01:18:54.220Z,81.07
2023-01-22T01:21:22.920Z,80.25
2023-01-22T01:23:51.996Z,80.31
2023-01-22T01:26:22.208Z,80.76
2023-01-22T01:28:53.461Z,80.70
2023-01-22T01:31:26.598Z,80.26
2023-01-22T01:33:59.338Z,80.57
2023-01-22T01:36:47.531Z,80.58
2023-01-22T01:39:18.231Z,80.07
2023-01-22T01:41:50.593Z,80.92
2023-01-22T01:44:22.012Z,80.44
2023-01-22T01:46:56.006Z,79.96
2023-01-22T01:49:31.267Z,80.26
2023-01-22T01:52:03.022Z,80.09
2023-01-22T01:54:33.333Z,80.44
2023-01-22T01:57:10.264Z,80.44
2023-01-22T01:59:40.668Z,80.17
2023-01-22T02:02:09.471Z,80.36
2023-01-22T02:04:38.149Z,79.77
2023-01-22T02:07:07.555Z,80.68
2023-01-22T02:09:36.744Z,80.47
2023-01-22T02:12:07.761Z,80.19
2023-01-22T02:14:40.900Z,80.66
2023-01-22T02:17:12.201Z,80.58
2023-01-22T02:19:41.423Z,80.67
2023-01-22T02:22:15.300Z,79.91
2023-01-22T02:24:44.148Z,79.94
2023-01-22T02:27:13.808Z,80.21
2023-01-22T02:29:42.929Z,80.19
2023-01-22T02:32:13.159Z,80.61
2023-01-22T02:34:41.990Z,79.73
2023-01-22T02:37:13.281Z,79.66
2023-01-22T02:39:42.343Z,79.43
2023-01-22T02:42:11.158Z,80.15
2023-01-22T02:44:42.727Z,79.19
2023-01-22T02:47:11.502Z,78.89
2023-01-22T02:49:40.205Z,79.52
2023-01-22T02:52:09.109Z,78.71
2023-01-22T02:54:39.305Z,78.30
2023-01-22T02:57:08.159Z,78.99
2023-01-22T02:59:36.961Z,78.26
2023-01-22T03:02:05.921Z,78.03
2023-01-22T03:04:34.579Z,78.60
2023-01-22T03:07:05.518Z,78.12
2023-01-22T03:09:34.276Z,78.84
2023-01-22T03:12:06.150Z,78.57
2023-01-22T03:14:47.751Z,79.30
2023-01-22T03:17:27.707Z,79.54
2023-01-22T03:20:06.561Z,78.75
2023-01-22T03:22:35.381Z,78.80
2023-01-22T03:25:04.210Z,79.40
2023-01-22T03:27:35.591Z,78.72
2023-01-22T03:30:05.047Z,79.24
2023-01-22T03:32:36.592Z,78.80
2023-01-22T03:35:05.981Z,78.89
2023-01-22T03:37:49.928Z,78.73
2023-01-22T03:40:19.689Z,79.23
2023-01-22T03:42:50.034Z,79.73
2023-01-22T03:45:18.898Z,78.88
2023-01-22T03:47:47.651Z,79.05
2023-01-22T03:50:25.437Z,79.56
2023-01-22T03:52:54.317Z,80.24
2023-01-22T03:55:23.069Z,80.51
2023-01-22T03:57:53.423Z,80.84
2023-01-22T04:00:22.768Z,80.93
2023-01-22T04:02:54.049Z,80.66
2023-01-22T04:05:27.748Z,81.50
2023-01-22T04:07:56.669Z,81.63
2023-01-22T04:10:29.414Z,82.06
2023-01-22T04:12:59.775Z,82.12
2023-01-22T04:15:29.336Z,83.08
2023-01-22T04:17:59.873Z,83.56
2023-01-22T04:20:39.769Z,83.46
2023-01-22T04:23:19.919Z,83.39
2023-01-22T04:25:50.723Z,84.32
2023-01-22T04:28:22.301Z,84.40
2023-01-22T04:30:57.373Z,84.37
2023-01-22T04:33:46.835Z,85.23
2023-01-22T04:36:23.522Z,84.75
2023-01-22T04:38:52.364Z,85.05
2023-01-22T04:41:21.563Z,84.92
2023-01-22T04:43:52.269Z,85.53
2023-01-22T04:46:24.461Z,86.24
2023-01-22T04:48:54.543Z,85.77
2023-01-22T04:51:23.496Z,86.22
2023-01-22T04:53:52.425Z,86.64
2023-01-22T04:56:21.265Z,86.64
2023-01-22T04:58:52.609Z,86.17
2023-01-22T05:01:22.820Z,86.76
2023-01-22T05:03:52.079Z,87.34
2023-01-22T05:06:22.212Z,86.70
2023-01-22T05:08:51.102Z,87.03
2023-01-22T05:11:19.732Z,87.79
2023-01-22T05:13:57.379Z,87.63
2023-01-22T05:16:26.329Z,87.99
2023-01-22T05:18:55.120Z,87.60
2023-01-22T05:21:23.994Z,87.76
2023-01-22T05:23:53.281Z,87.31
2023-01-22T05:26:22.289Z,87.64
2023-01-22T05:28:58.510Z,88.53
2023-01-22T05:31:40.703Z,87.83
2023-01-22T05:34:17.407Z,88.28
2023-01-22T05:36:46.640Z,88.66
2023-01-22T05:39:19.237Z,88.92
2023-01-22T05:41:48.790Z,88.05
2023-01-22T05:44:19.061Z,88.32
2023-01-22T05:46:53.372Z,88.36
2023-01-22T05:49:33.141Z,89.18
2023-01-22T05:52:01.894Z,89.21
2023-01-22T05:54:30.771Z,89.44
2023-01-22T05:57:01.784Z,88.71
2023-01-22T05:59:32.613Z,89.10
2023-01-22T06:02:05.280Z,89.54
2023-01-22T06:04:36.425Z,89.18
2023-01-22T06:07:13.177Z,89.56
2023-01-22T06:09:42.129Z,90.16
2023-01-22T06:12:11.142Z,90.10
2023-01-22T06:14:41.392Z,89.68
2023-01-22T06:17:10.373Z,89.77
2023-01-22T06:19:47.482Z,90.49
2023-01-22T06:22:20.102Z,90.20
2023-01-22T06:24:53.753Z,89.73
2023-01-22T06:27:25.993Z,90.36
2023-01-22T06:30:01.490Z,90.44
2023-01-22T06:32:30.791Z,90.52
2023-01-22T06:35:01.773Z,89.88
2023-01-22T06:37:31.209Z,90.55
2023-01-22T06:40:00.900Z,90.82
2023-01-22T06:42:42.498Z,90.81
2023-01-22T06:45:13.426Z,91.09
2023-01-22T06:47:48.165Z,90.29
2023-01-22T06:50:18.074Z,90.63
2023-01-22T06:52:47.323Z,91.12
2023-01-22T06:55:17.974Z,91.39
2023-01-22T06:57:47.514Z,90.43
2023-01-22T07:00:19.533Z,90.97
2023-01-22T07:02:48.834Z,91.46
2023-01-22T07:05:17.585Z,91.46
2023-01-22T07:07:47.965Z,91.22
2023-01-22T07:10:17.875Z,90.79
2023-01-22T07:12:46.861Z,91.70
2023-01-22T07:15:16.605Z,91.77
2023-01-22T07:17:51.516Z,91.05
2023-01-22T07:20:24.043Z,90.99
2023-01-22T07:22:53.568Z,91.44
2023-01-22T07:25:22.471Z,91.70
2023-01-22T07:27:51.184Z,91.57
2023-01-22T07:30:20.773Z,91.55
2023-01-22T07:32:51.251Z,91.00
2023-01-22T07:35:20.940Z,91.11
2023-01-22T07:37:53.791Z,91.70
2023-01-22T07:40:25.065Z,92.16
2023-01-22T07:42:54.541Z,91.65
2023-01-22T07:45:26.754Z,91.24
2023-01-22T07:47:59.863Z,91.72
2023-01-22T07:50:30.908Z,91.48
2023-01-22T07:53:00.837Z,90.93
2023-01-22T07:55:31.521Z,91.55
2023-01-22T07:58:01.314Z,91.78
2023-01-22T08:00:30.066Z,91.04
2023-01-22T08:03:00.345Z,90.85
2023-01-22T08:05:29.433Z,90.96
2023-01-22T08:07:58.187Z,90.98
2023-01-22T08:10:26.954Z,91.12
2023-01-22T08:12:55.751Z,90.93
2023-01-22T08:15:24.975Z,90.75
2023-01-22T08:17:53.687Z,91.49
2023-01-22T08:20:24.420Z,91.22
2023-01-22T08:22:58.322Z,90.59
2023-01-22T08:25:27.387Z,91.40
2023-01-22T08:27:56.486Z,90.99
2023-01-22T08:30:25.276Z,91.27
2023-01-22T08:32:55.357Z,90.77
2023-01-22T08:35:25.605Z,90.92
2023-01-22T08:37:54.362Z,91.36
2023-01-22T08:40:23.105Z,90.71
2023-01-22T08:42:54.980Z,91.16
2023-01-22T08:45:23.924Z,90.97
2023-01-22T08:47:58.411Z,90.39
2023-01-22T08:50:29.873Z,90.40
2023-01-22T08:52:59.188Z,90.58
2023-01-22T08:55:28.239Z,90.98
2023-01-22T08:57:57.784Z,90.52
2023-01-22T09:00:27.894Z,90.86
2023-01-22T09:03:00.252Z,90.38
2023-01-22T09:05:30.527Z,90.91
2023-01-22T09:07:59.644Z,90.33
2023-01-22T09:10:28.425Z,90.92
2023-01-22T09:13:00.813Z,90.65
2023-01-22T09:15:29.780Z,90.35
2023-01-22T09:18:00.445Z,91.06
2023-01-22T09:20:30.681Z,90.70
2023-01-22T09:22:59.520Z,90.07
2023-01-22T09:25:29.653Z,90.75
2023-01-22T09:28:00.504Z,90.52
2023-01-22T09:30:32.656Z,90.28
2023-01-22T09:33:01.374Z,90.94
2023-01-22T09:35:31.570Z,90.10
2023-01-22T09:38:01.631Z,90.00
2023-01-22T09:40:36.086Z,90.19
2023-01-22T09:43:07.337Z,89.71
2023-01-22T09:45:40.129Z,90.18
2023-01-22T09:48:17.904Z,89.92
2023-01-22T09:50:51.128Z,89.63
2023-01-22T09:53:22.254Z,90.33
2023-01-22T09:55:55.824Z,90.41
2023-01-22T09:58:27.240Z,89.62
2023-01-22T10:01:00.405Z,89.86
2023-01-22T10:03:35.495Z,90.36
2023-01-22T10:06:12.772Z,89.97
2023-01-22T10:08:53.623Z,89.66
2023-01-22T10:11:22.534Z,89.68
2023-01-22T10:13:52.893Z,89.75
2023-01-22T10:16:21.999Z,90.16
2023-01-22T10:18:56.782Z,89.99
2023-01-22T10:21:31.225Z,90.00
2023-01-22T10:24:00.858Z,90.44
2023-01-22T10:26:38.803Z,89.81
2023-01-22T10:29:10.154Z,89.76
2023-01-22T10:31:41.333Z,89.70
2023-01-22T10:34:15.825Z,89.93
2023-01-22T10:36:52.784Z,90.03
2023-01-22T10:39:22.132Z,90.25
2023-01-22T10:41:51.205Z,90.20
2023-01-22T10:44:23.560Z,89.74
2023-01-22T10:46:53.870Z,90.16
2023-01-22T10:49:24.573Z,90.08
2023-01-22T10:51:57.104Z,90.33
2023-01-22T10:54:32.011Z,90.43
2023-01-22T10:57:19.150Z,89.31
2023-01-22T10:59:50.912Z,89.72
2023-01-22T11:02:24.520Z,89.54
2023-01-22T11:04:54.334Z,90.12
2023-01-22T11:07:25.625Z,89.64
2023-01-22T11:10:01.373Z,89.93
2023-01-22T11:12:32.494Z,89.81
2023-01-22T11:15:07.935Z,90.18
2023-01-22T11:17:41.557Z,90.13
2023-01-22T11:20:21.441Z,90.15
2023-01-22T11:23:17.134Z,89.66
2023-01-22T11:25:50.695Z,89.77
2023-01-22T11:28:32.891Z,89.86
2023-01-22T11:31:18.754Z,90.42
2023-01-22T11:34:08.627Z,89.36
2023-01-22T11:36:44.584Z,89.60
2023-01-22T11:39:23.441Z,89.56
2023-01-22T11:42:04.595Z,90.14
2023-01-22T11:44:57.078Z,90.15
2023-01-22T11:47:44.487Z,89.50
2023-01-22T11:50:24.228Z,89.46
2023-01-22T11:53:01.402Z,89.50
2023-01-22T11:55:49.252Z,89.49
2023-01-22T11:58:27.125Z,89.86
2023-01-22T12:01:08.022Z,89.89
2023-01-22T12:03:59.768Z,89.80
2023-01-22T12:06:50.327Z,89.37
2023-01-22T12:09:25.247Z,89.20
2023-01-22T12:12:13.817Z,90.02
2023-01-22T12:15:00.177Z,89.26
2023-01-22T12:17:42.843Z,89.81
2023-01-22T12:20:31.973Z,89.90
2023-01-22T12:23:06.838Z,89.58
2023-01-22T12:25:42.234Z,89.27
2023-01-22T12:28:18.591Z,89.33
2023-01-22T12:30:58.359Z,89.86
2023-01-22T12:33:30.861Z,89.73
2023-01-22T12:36:04.270Z,89.67
2023-01-22T12:38:43.175Z,89.29
2023-01-22T12:41:26.136Z,89.74
2023-01-22T12:43:59.099Z,89.58
2023-01-22T12:46:34.831Z,89.55
2023-01-22T12:49:08.527Z,89.55
2023-01-22T12:51:41.528Z,89.40
2023-01-22T12:54:19.648Z,89.88
2023-01-22T12:56:49.178Z,89.46
2023-01-22T12:59:34.792Z,89.67
2023-01-22T13:02:07.985Z,89.67
2023-01-22T13:04:36.768Z,89.40
2023-01-22T13:07:08.106Z,89.96
2023-01-22T13:09:38.714Z,89.64
2023-01-22T13:12:11.445Z,89.37
2023-01-22T13:14:43.732Z,89.50
2023-01-22T13:17:21.300Z,89.95
2023-01-22T13:19:51.975Z,90.00
2023-01-22T13:22:23.912Z,89.52
2023-01-22T13:24:55.397Z,89.38
2023-01-22T13:27:27.700Z,89.62
2023-01-22T13:30:09.848Z,88.93
2023-01-22T13:32:38.571Z,88.99
2023-01-22T13:35:08.268Z,89.35
2023-01-22T13:37:39.102Z,89.77
2023-01-22T13:40:16.591Z,89.51
2023-01-22T13:42:47.434Z,89.25
2023-01-22T13:45:23.287Z,89.13
2023-01-22T13:47:57.371Z,89.38
2023-01-22T13:50:29.071Z,89.67
2023-01-22T13:52:59.118Z,89.10
2023-01-22T13:55:29.715Z,89.44
2023-01-22T13:58:02.198Z,89.54
2023-01-22T14:00:34.396Z,89.74
2023-01-22T14:03:03.935Z,89.46
2023-01-22T14:05:34.682Z,89.57
2023-01-22T14:08:08.359Z,89.48
2023-01-22T14:10:37.453Z,89.27
2023-01-22T14:13:08.069Z,89.33
2023-01-22T14:15:39.735Z,89.58
2023-01-22T14:18:11.141Z,89.68
2023-01-22T14:20:41.644Z,89.72
2023-01-22T14:23:10.349Z,89.39
2023-01-22T14:25:39.920Z,89.51
2023-01-22T14:28:08.505Z,90.04
2023-01-22T14:30:38.831Z,89.65
2023-01-22T14:33:08.448Z,89.63
2023-01-22T14:35:37.242Z,89.52
2023-01-22T14:38:06.023Z,90.10
2023-01-22T14:40:35.136Z,90.35
2023-01-22T14:43:04.714Z,90.06
2023-01-22T14:45:33.588Z,89.99
2023-01-22T14:48:04.697Z,89.98
2023-01-22T14:50:34.219Z,90.17
2023-01-22T14:53:02.969Z,89.89
2023-01-22T14:55:31.696Z,90.28
2023-01-22T14:58:00.557Z,89.92
2023-01-22T15:00:30.823Z,90.25
2023-01-22T15:03:00.668Z,89.96
2023-01-22T15:05:30.854Z,89.97
2023-01-22T15:08:01.625Z,90.50
2023-01-22T15:10:30.602Z,90.14
2023-01-22T15:12:59.227Z,90.44
2023-01-22T15:15:28.927Z,90.48
2023-01-22T15:17:58.593Z,90.25
2023-01-22T15:20:27.116Z,90.34
2023-01-22T15:22:57.353Z,90.24
2023-01-22T15:25:27.675Z,90.69
2023-01-22T15:27:56.372Z,90.96
2023-01-22T15:30:25.298Z,90.66
2023-01-22T15:32:54.287Z,90.73
2023-01-22T15:35:22.924Z,91.20
2023-01-22T15:37:51.796Z,90.74
2023-01-22T15:40:22.201Z,91.21
2023-01-22T15:42:51.043Z,91.14
2023-01-22T15:45:19.797Z,91.67
2023-01-22T15:47:49.152Z,91.71
2023-01-22T15:50:20.753Z,91.54
2023-01-22T15:52:54.094Z,91.83
2023-01-22T15:55:24.284Z,91.91
2023-01-22T15:57:52.976Z,91.81
2023-01-22T16:00:22.820Z,91.54
2023-01-22T16:02:51.638Z,91.57
2023-01-22T16:05:21.594Z,91.66
2023-01-22T16:07:52.567Z,91.97
2023-01-22T16:10:23.624Z,92.01
2023-01-22T16:12:52.326Z,92.37
2023-01-22T16:15:21.049Z,92.36
2023-01-22T16:17:49.732Z,92.07
2023-01-22T16:20:20.109Z,91.96
2023-01-22T16:22:50.001Z,92.61
2023-01-22T16:25:18.831Z,92.45
2023-01-22T16:27:49.088Z,92.51
2023-01-22T16:30:18.408Z,92.40
2023-01-22T16:32:47.261Z,92.76
2023-01-22T16:35:18.644Z,92.21
2023-01-22T16:37:47.467Z,92.58
2023-01-22T16:40:18.166Z,92.23
2023-01-22T16:43:03.231Z,92.25
2023-01-22T16:45:32.109Z,92.88
2023-01-22T16:48:00.722Z,92.71
2023-01-22T16:50:29.769Z,92.57
2023-01-22T16:52:58.735Z,92.35
2023-01-22T16:55:28.237Z,92.74
2023-01-22T16:58:00.449Z,93.22
2023-01-22T17:00:29.260Z,92.56
2023-01-22T17:02:59.789Z,93.10
2023-01-22T17:05:28.596Z,92.70
2023-01-22T17:07:57.325Z,92.76
2023-01-22T17:10:26.157Z,93.19
2023-01-22T17:12:54.877Z,93.19
2023-01-22T17:15:25.208Z,93.00
2023-01-22T17:17:54.027Z,92.88
2023-01-22T17:20:22.907Z,93.30
2023-01-22T17:22:51.792Z,93.37
2023-01-22T17:25:21.658Z,92.92
2023-01-22T17:27:50.460Z,93.10
2023-01-22T17:30:19.630Z,93.55
2023-01-22T17:32:50.733Z,93.31
2023-01-22T17:35:20.030Z,92.87
2023-01-22T17:37:48.779Z,93.44
2023-01-22T17:40:17.651Z,93.37
2023-01-22T17:42:46.309Z,93.47
2023-01-22T17:45:15.137Z,93.04
2023-01-22T17:47:45.731Z,93.10
2023-01-22T17:50:16.442Z,93.38
2023-01-22T17:52:45.310Z,92.87
2023-01-22T17:55:14.051Z,92.86
2023-01-22T17:57:43.221Z,92.95
2023-01-22T18:00:13.048Z,93.31
2023-01-22T18:02:42.018Z,93.05
2023-01-22T18:05:11.330Z,93.70
2023-01-22T18:07:41.913Z,93.54
2023-01-22T18:10:13.929Z,93.00
2023-01-22T18:12:44.543Z,93.38
2023-01-22T18:15:13.621Z,92.64
2023-01-22T18:17:42.197Z,93.64
2023-01-22T18:20:12.263Z,93.03
2023-01-22T18:22:42.137Z,93.34
2023-01-22T18:25:11.329Z,92.74
2023-01-22T18:27:39.965Z,93.16
2023-01-22T18:30:12.217Z,92.78
2023-01-22T18:32:40.938Z,93.08
2023-01-22T18:35:10.783Z,93.24
2023-01-22T18:37:41.713Z,92.18
2023-01-22T18:40:11.717Z,92.68
2023-01-22T18:42:40.443Z,92.81
2023-01-22T18:45:10.527Z,92.65
2023-01-22T18:47:39.416Z,92.79
2023-01-22T18:50:10.295Z,92.72
2023-01-22T18:52:39.147Z,92.31
2023-01-22T18:55:10.354Z,92.69
2023-01-22T18:57:43.018Z,91.90
2023-01-22T19:00:13.977Z,92.35
2023-01-22T19:02:43.402Z,92.24
2023-01-22T19:05:12.157Z,92.22
2023-01-22T19:07:40.959Z,92.34
2023-01-22T19:10:11.550Z,91.97
2023-01-22T19:12:40.340Z,92.21
2023-01-22T19:15:10.641Z,91.98
2023-01-22T19:17:39.904Z,92.01
2023-01-22T19:20:11.653Z,92.18
2023-01-22T19:22:40.398Z,92.75
2023-01-22T19:25:11.665Z,92.57
2023-01-22T19:27:40.487Z,92.59
2023-01-22T19:30:10.819Z,92.80
2023-01-22T19:32:39.697Z,92.12
2023-01-22T19:35:10.181Z,92.68
2023-01-22T19:37:38.902Z,91.88
2023-01-22T19:40:09.157Z,91.77
2023-01-22T19:42:42.299Z,92.85
2023-01-22T19:45:11.404Z,92.55
2023-01-22T19:47:40.000Z,92.29
2023-01-22T19:50:10.349Z,92.33
2023-01-22T19:52:39.054Z,92.25
2023-01-22T19:55:08.278Z,92.42
2023-01-22T19:57:38.464Z,92.37
2023-01-22T20:00:09.479Z,92.37
2023-01-22T20:02:38.412Z,92.06
2023-01-22T20:05:08.042Z,92.54
2023-01-22T20:07:36.958Z,93.27
2023-01-22T20:10:06.435Z,93.18
2023-01-22T20:12:35.139Z,93.05
2023-01-22T20:15:05.699Z,92.59
2023-01-22T20:17:34.359Z,93.13
2023-01-22T20:20:02.946Z,92.86
2023-01-22T20:22:31.761Z,93.33
2023-01-22T20:25:00.841Z,93.39
2023-01-22T20:27:29.943Z,93.32
2023-01-22T20:29:58.659Z,93.23
2023-01-22T20:32:30.607Z,93.57
2023-01-22T20:34:59.585Z,93.11
2023-01-22T20:37:28.288Z,93.32
2023-01-22T20:39:57.500Z,92.71
2023-01-22T20:42:28.538Z,93.46
2023-01-22T20:44:58.649Z,93.41
2023-01-22T20:47:28.797Z,93.38
2023-01-22T20:49:57.446Z,93.06
2023-01-22T20:52:26.305Z,93.13
2023-01-22T20:55:01.689Z,93.59
2023-01-22T20:57:31.882Z,92.64
2023-01-22T21:00:00.631Z,92.67
2023-01-22T21:02:31.398Z,93.43
2023-01-22T21:05:00.329Z,92.76
2023-01-22T21:07:29.121Z,93.19
2023-01-22T21:09:57.850Z,92.63
2023-01-22T21:12:27.594Z,92.56
2023-01-22T21:14:57.324Z,93.02
2023-01-22T21:17:25.767Z,92.96
2023-01-22T21:19:56.329Z,92.66
2023-01-22T21:22:25.122Z,92.68
2023-01-22T21:24:53.903Z,92.47
2023-01-22T21:27:22.759Z,93.31
2023-01-22T21:29:51.999Z,93.42
2023-01-22T21:32:20.842Z,93.09
2023-01-22T21:34:49.652Z,93.07
2023-01-22T21:37:20.441Z,92.40
2023-01-22T21:39:49.454Z,92.73
2023-01-22T21:42:28.163Z,92.89
2023-01-22T21:45:06.679Z,92.68
2023-01-22T21:47:35.520Z,92.08
2023-01-22T21:50:04.178Z,92.44
2023-01-22T21:52:34.601Z,92.05
2023-01-22T21:55:03.431Z,92.13
2023-01-22T21:57:32.117Z,92.66
2023-01-22T22:00:00.928Z,91.91
2023-01-22T22:02:29.684Z,92.24
2023-01-22T22:05:00.190Z,92.53
2023-01-22T22:07:29.001Z,92.26
2023-01-22T22:09:59.488Z,91.65
2023-01-22T22:12:31.559Z,92.51
2023-01-22T22:15:00.328Z,92.45
2023-01-22T22:17:29.059Z,92.11
2023-01-22T22:19:57.764Z,92.30
2023-01-22T22:22:26.891Z,92.30
2023-01-22T22:24:55.741Z,92.12
2023-01-22T22:27:27.793Z,92.27
2023-01-22T22:29:56.911Z,91.94
2023-01-22T22:32:25.656Z,91.43
2023-01-22T22:34:55.440Z,91.72
2023-01-22T22:37:24.209Z,91.90
2023-01-22T22:39:53.049Z,91.83
2023-01-22T22:42:21.773Z,91.80
2023-01-22T22:44:52.043Z,92.16
2023-01-22T22:47:20.797Z,91.74
2023-01-22T22:49:49.518Z,92.11
2023-01-22T22:52:18.962Z,91.75
2023-01-22T22:54:47.811Z,92.00
2023-01-22T22:57:16.641Z,92.09
2023-01-22T22:59:45.333Z,92.46
2023-01-22T23:02:15.800Z,91.97
2023-01-22T23:04:44.686Z,92.13
2023-01-22T23:07:13.456Z,92.28
2023-01-22T23:09:42.283Z,92.34
2023-01-22T23:12:10.959Z,92.16
2023-01-22T23:14:39.753Z,91.87
2023-01-22T23:17:08.465Z,92.14
2023-01-22T23:19:38.919Z,91.78
2023-01-22T23:22:08.001Z,91.82
2023-01-22T23:24:36.862Z,91.93
2023-01-22T23:27:05.878Z,91.58
2023-01-22T23:29:34.692Z,92.47
2023-01-22T23:32:03.461Z,91.64
2023-01-22T23:34:32.287Z,91.80
2023-01-22T23:37:02.414Z,92.06
2023-01-22T23:39:31.187Z,91.80
2023-01-22T23:41:59.899Z,92.39
2023-01-22T23:44:28.722Z,91.98
2023-01-22T23:46:57.467Z,92.51
2023-01-22T23:49:26.272Z,92.36
2023-01-22T23:51:55.049Z,92.29
2023-01-22T23:54:25.310Z,92.18
2023-01-22T23:56:54.252Z,92.46
2023-01-22T23:59:23.708Z,92.00
